sensor_id;sensor_type;location;lat;lon;timestamp;P1;durP1;ratioP1;P2;durP2;ratioP2
62435;SDS011;48480;50.252;18.848;2024-02-14T00:02:12;79.90;;;35.80;;
62435;SDS011;48480;50.252;18.848;2024-02-14T00:04:56;78.90;;;35.50;;
62435;SDS011;48480;50.252;18.848;2024-02-14T00:07:40;74.80;;;34.40;;
62435;SDS011;48480;50.252;18.848;2024-02-14T00:10:24;86.60;;;35.40;;
62435;SDS011;48480;50.252;18.848;2024-02-14T00:13:08;83.70;;;35.50;;
62435;SDS011;48480;50.252;18.848;2024-02-14T00:15:53;65.30;;;30.60;;
62435;SDS011;48480;50.252;18.848;2024-02-14T00:18:37;57.60;;;29.60;;
62435;SDS011;48480;50.252;18.848;2024-02-14T00:21:21;63.00;;;30.00;;
62435;SDS011;48480;50.252;18.848;2024-02-14T00:24:08;55.80;;;28.00;;
62435;SDS011;48480;50.252;18.848;2024-02-14T00:26:56;64.10;;;31.10;;
62435;SDS011;48480;50.252;18.848;2024-02-14T00:29:44;75.40;;;32.90;;
62435;SDS011;48480;50.252;18.848;2024-02-14T00:32:30;67.60;;;32.30;;
62435;SDS011;48480;50.252;18.848;2024-02-14T00:35:14;64.40;;;31.50;;
62435;SDS011;48480;50.252;18.848;2024-02-14T00:37:58;75.20;;;32.70;;
62435;SDS011;48480;50.252;18.848;2024-02-14T00:40:42;62.80;;;29.80;;
62435;SDS011;48480;50.252;18.848;2024-02-14T00:43:27;76.40;;;34.70;;
62435;SDS011;48480;50.252;18.848;2024-02-14T00:46:17;74.30;;;32.40;;
62435;SDS011;48480;50.252;18.848;2024-02-14T00:49:02;69.10;;;30.70;;
62435;SDS011;48480;50.252;18.848;2024-02-14T00:51:46;66.70;;;31.20;;
62435;SDS011;48480;50.252;18.848;2024-02-14T00:54:31;59.30;;;29.20;;
62435;SDS011;48480;50.252;18.848;2024-02-14T00:57:15;61.50;;;28.40;;
62435;SDS011;48480;50.252;18.848;2024-02-14T01:00:01;57.10;;;26.90;;
62435;SDS011;48480;50.252;18.848;2024-02-14T01:02:47;57.50;;;28.40;;
62435;SDS011;48480;50.252;18.848;2024-02-14T01:05:31;59.20;;;29.60;;
62435;SDS011;48480;50.252;18.848;2024-02-14T01:08:16;52.40;;;27.40;;
62435;SDS011;48480;50.252;18.848;2024-02-14T01:11:00;56.60;;;27.20;;
62435;SDS011;48480;50.252;18.848;2024-02-14T01:13:44;51.70;;;25.80;;
62435;SDS011;48480;50.252;18.848;2024-02-14T01:16:29;51.90;;;28.00;;
62435;SDS011;48480;50.252;18.848;2024-02-14T01:19:14;51.80;;;27.30;;
62435;SDS011;48480;50.252;18.848;2024-02-14T01:21:58;57.80;;;30.40;;
62435;SDS011;48480;50.252;18.848;2024-02-14T01:24:42;56.60;;;27.50;;
62435;SDS011;48480;50.252;18.848;2024-02-14T01:27:27;49.20;;;27.70;;
62435;SDS011;48480;50.252;18.848;2024-02-14T01:30:12;47.60;;;27.00;;
62435;SDS011;48480;50.252;18.848;2024-02-14T01:32:56;49.10;;;25.90;;
62435;SDS011;48480;50.252;18.848;2024-02-14T01:35:40;50.00;;;28.60;;
62435;SDS011;48480;50.252;18.848;2024-02-14T01:38:27;50.40;;;28.40;;
62435;SDS011;48480;50.252;18.848;2024-02-14T01:41:11;57.70;;;31.00;;
62435;SDS011;48480;50.252;18.848;2024-02-14T01:43:55;56.80;;;31.80;;
62435;SDS011;48480;50.252;18.848;2024-02-14T01:46:39;60.00;;;31.90;;
62435;SDS011;48480;50.252;18.848;2024-02-14T01:49:23;57.60;;;30.50;;
62435;SDS011;48480;50.252;18.848;2024-02-14T01:52:08;59.30;;;31.50;;
62435;SDS011;48480;50.252;18.848;2024-02-14T01:54:53;55.10;;;29.50;;
62435;SDS011;48480;50.252;18.848;2024-02-14T01:57:38;50.40;;;28.40;;
62435;SDS011;48480;50.252;18.848;2024-02-14T02:00:23;62.00;;;31.50;;
62435;SDS011;48480;50.252;18.848;2024-02-14T02:03:09;55.00;;;31.30;;
62435;SDS011;48480;50.252;18.848;2024-02-14T02:05:54;60.30;;;30.50;;
62435;SDS011;48480;50.252;18.848;2024-02-14T02:08:39;49.60;;;28.70;;
62435;SDS011;48480;50.252;18.848;2024-02-14T02:11:23;46.90;;;27.80;;
62435;SDS011;48480;50.252;18.848;2024-02-14T02:14:09;49.60;;;27.70;;
62435;SDS011;48480;50.252;18.848;2024-02-14T02:16:53;57.80;;;33.20;;
62435;SDS011;48480;50.252;18.848;2024-02-14T02:19:37;60.80;;;34.00;;
62435;SDS011;48480;50.252;18.848;2024-02-14T02:22:21;54.80;;;30.60;;
62435;SDS011;48480;50.252;18.848;2024-02-14T02:25:06;52.10;;;31.50;;
62435;SDS011;48480;50.252;18.848;2024-02-14T02:27:51;56.40;;;33.00;;
62435;SDS011;48480;50.252;18.848;2024-02-14T02:30:36;58.30;;;30.80;;
62435;SDS011;48480;50.252;18.848;2024-02-14T02:33:21;65.40;;;33.60;;
62435;SDS011;48480;50.252;18.848;2024-02-14T02:36:06;60.40;;;33.10;;
62435;SDS011;48480;50.252;18.848;2024-02-14T02:38:51;56.10;;;30.40;;
62435;SDS011;48480;50.252;18.848;2024-02-14T02:41:35;50.10;;;28.90;;
62435;SDS011;48480;50.252;18.848;2024-02-14T02:44:19;52.80;;;29.80;;
62435;SDS011;48480;50.252;18.848;2024-02-14T02:47:03;50.70;;;28.30;;
62435;SDS011;48480;50.252;18.848;2024-02-14T02:49:47;49.40;;;27.60;;
62435;SDS011;48480;50.252;18.848;2024-02-14T02:52:31;54.00;;;30.30;;
62435;SDS011;48480;50.252;18.848;2024-02-14T02:55:15;62.70;;;32.60;;
62435;SDS011;48480;50.252;18.848;2024-02-14T02:58:01;61.50;;;31.50;;
62435;SDS011;48480;50.252;18.848;2024-02-14T03:00:45;56.40;;;31.10;;
62435;SDS011;48480;50.252;18.848;2024-02-14T03:03:30;55.60;;;30.40;;
62435;SDS011;48480;50.252;18.848;2024-02-14T03:06:17;55.90;;;30.70;;
62435;SDS011;48480;50.252;18.848;2024-02-14T03:09:02;61.80;;;34.30;;
62435;SDS011;48480;50.252;18.848;2024-02-14T03:11:46;65.10;;;34.50;;
62435;SDS011;48480;50.252;18.848;2024-02-14T03:14:32;59.30;;;31.90;;
62435;SDS011;48480;50.252;18.848;2024-02-14T03:17:16;60.70;;;30.10;;
62435;SDS011;48480;50.252;18.848;2024-02-14T03:20:00;52.40;;;28.00;;
62435;SDS011;48480;50.252;18.848;2024-02-14T03:22:44;49.80;;;28.00;;
62435;SDS011;48480;50.252;18.848;2024-02-14T03:25:29;52.50;;;26.80;;
62435;SDS011;48480;50.252;18.848;2024-02-14T03:28:13;45.30;;;26.20;;
62435;SDS011;48480;50.252;18.848;2024-02-14T03:30:58;51.60;;;28.10;;
62435;SDS011;48480;50.252;18.848;2024-02-14T03:33:42;55.30;;;28.90;;
62435;SDS011;48480;50.252;18.848;2024-02-14T03:36:28;52.80;;;27.90;;
62435;SDS011;48480;50.252;18.848;2024-02-14T03:39:14;54.60;;;29.00;;
62435;SDS011;48480;50.252;18.848;2024-02-14T03:42:01;53.80;;;27.60;;
62435;SDS011;48480;50.252;18.848;2024-02-14T03:44:53;54.40;;;28.90;;
62435;SDS011;48480;50.252;18.848;2024-02-14T03:47:43;56.50;;;28.40;;
62435;SDS011;48480;50.252;18.848;2024-02-14T03:50:28;53.20;;;27.60;;
62435;SDS011;48480;50.252;18.848;2024-02-14T03:53:12;50.70;;;26.10;;
62435;SDS011;48480;50.252;18.848;2024-02-14T03:55:58;51.70;;;24.50;;
62435;SDS011;48480;50.252;18.848;2024-02-14T03:58:42;45.00;;;22.20;;
62435;SDS011;48480;50.252;18.848;2024-02-14T04:01:27;40.50;;;22.00;;
62435;SDS011;48480;50.252;18.848;2024-02-14T04:04:11;39.90;;;22.60;;
62435;SDS011;48480;50.252;18.848;2024-02-14T04:06:55;42.90;;;24.00;;
62435;SDS011;48480;50.252;18.848;2024-02-14T04:09:39;42.40;;;23.40;;
62435;SDS011;48480;50.252;18.848;2024-02-14T04:12:23;41.90;;;23.60;;
62435;SDS011;48480;50.252;18.848;2024-02-14T04:15:08;46.90;;;24.90;;
62435;SDS011;48480;50.252;18.848;2024-02-14T04:17:53;42.10;;;23.40;;
62435;SDS011;48480;50.252;18.848;2024-02-14T04:20:37;41.30;;;23.00;;
62435;SDS011;48480;50.252;18.848;2024-02-14T04:23:22;42.70;;;24.40;;
62435;SDS011;48480;50.252;18.848;2024-02-14T04:26:07;47.10;;;23.80;;
62435;SDS011;48480;50.252;18.848;2024-02-14T04:28:56;40.70;;;23.10;;
62435;SDS011;48480;50.252;18.848;2024-02-14T04:31:41;39.60;;;21.40;;
62435;SDS011;48480;50.252;18.848;2024-02-14T04:34:27;40.20;;;20.00;;
62435;SDS011;48480;50.252;18.848;2024-02-14T04:37:11;40.10;;;20.90;;
62435;SDS011;48480;50.252;18.848;2024-02-14T04:39:57;37.90;;;21.10;;
62435;SDS011;48480;50.252;18.848;2024-02-14T04:42:41;39.50;;;23.40;;
62435;SDS011;48480;50.252;18.848;2024-02-14T04:45:26;38.30;;;21.20;;
62435;SDS011;48480;50.252;18.848;2024-02-14T04:48:11;38.90;;;21.90;;
62435;SDS011;48480;50.252;18.848;2024-02-14T04:50:55;39.60;;;22.70;;
62435;SDS011;48480;50.252;18.848;2024-02-14T04:53:39;49.10;;;25.60;;
62435;SDS011;48480;50.252;18.848;2024-02-14T04:56:23;39.10;;;23.10;;
62435;SDS011;48480;50.252;18.848;2024-02-14T04:59:07;42.00;;;24.20;;
62435;SDS011;48480;50.252;18.848;2024-02-14T05:01:52;38.50;;;23.00;;
62435;SDS011;48480;50.252;18.848;2024-02-14T05:04:38;41.10;;;24.70;;
62435;SDS011;48480;50.252;18.848;2024-02-14T05:07:23;42.30;;;24.40;;
62435;SDS011;48480;50.252;18.848;2024-02-14T05:10:07;43.40;;;24.70;;
62435;SDS011;48480;50.252;18.848;2024-02-14T05:12:51;44.10;;;23.40;;
62435;SDS011;48480;50.252;18.848;2024-02-14T05:15:36;42.20;;;23.90;;
62435;SDS011;48480;50.252;18.848;2024-02-14T05:18:20;39.20;;;23.00;;
62435;SDS011;48480;50.252;18.848;2024-02-14T05:21:05;32.30;;;18.70;;
62435;SDS011;48480;50.252;18.848;2024-02-14T05:23:50;44.30;;;24.40;;
62435;SDS011;48480;50.252;18.848;2024-02-14T05:26:35;45.60;;;26.60;;
62435;SDS011;48480;50.252;18.848;2024-02-14T05:29:19;38.90;;;24.00;;
62435;SDS011;48480;50.252;18.848;2024-02-14T05:32:04;49.00;;;27.70;;
62435;SDS011;48480;50.252;18.848;2024-02-14T05:34:50;50.70;;;27.10;;
62435;SDS011;48480;50.252;18.848;2024-02-14T05:37:34;47.00;;;26.60;;
62435;SDS011;48480;50.252;18.848;2024-02-14T05:40:20;47.10;;;27.30;;
62435;SDS011;48480;50.252;18.848;2024-02-14T05:43:04;42.00;;;25.30;;
62435;SDS011;48480;50.252;18.848;2024-02-14T05:45:50;52.30;;;28.00;;
62435;SDS011;48480;50.252;18.848;2024-02-14T05:48:34;46.60;;;26.70;;
62435;SDS011;48480;50.252;18.848;2024-02-14T05:51:19;45.90;;;25.40;;
62435;SDS011;48480;50.252;18.848;2024-02-14T05:54:04;47.00;;;26.40;;
62435;SDS011;48480;50.252;18.848;2024-02-14T05:56:48;48.60;;;27.40;;
62435;SDS011;48480;50.252;18.848;2024-02-14T05:59:33;48.80;;;26.60;;
62435;SDS011;48480;50.252;18.848;2024-02-14T06:02:18;46.80;;;27.50;;
62435;SDS011;48480;50.252;18.848;2024-02-14T06:05:03;48.00;;;29.00;;
62435;SDS011;48480;50.252;18.848;2024-02-14T06:07:47;54.00;;;31.50;;
62435;SDS011;48480;50.252;18.848;2024-02-14T06:10:32;46.50;;;28.20;;
62435;SDS011;48480;50.252;18.848;2024-02-14T06:13:18;56.40;;;31.90;;
62435;SDS011;48480;50.252;18.848;2024-02-14T06:16:03;65.10;;;33.80;;
62435;SDS011;48480;50.252;18.848;2024-02-14T06:18:48;58.90;;;33.80;;
62435;SDS011;48480;50.252;18.848;2024-02-14T06:21:32;54.90;;;32.00;;
62435;SDS011;48480;50.252;18.848;2024-02-14T06:24:16;54.50;;;30.00;;
62435;SDS011;48480;50.252;18.848;2024-02-14T06:27:04;56.40;;;30.60;;
62435;SDS011;48480;50.252;18.848;2024-02-14T06:29:50;49.90;;;29.40;;
62435;SDS011;48480;50.252;18.848;2024-02-14T06:32:34;52.10;;;30.00;;
62435;SDS011;48480;50.252;18.848;2024-02-14T06:35:19;50.00;;;27.90;;
62435;SDS011;48480;50.252;18.848;2024-02-14T06:38:05;53.60;;;30.20;;
62435;SDS011;48480;50.252;18.848;2024-02-14T06:40:50;48.00;;;26.20;;
62435;SDS011;48480;50.252;18.848;2024-02-14T06:43:35;48.20;;;29.30;;
62435;SDS011;48480;50.252;18.848;2024-02-14T06:46:23;44.90;;;29.60;;
62435;SDS011;48480;50.252;18.848;2024-02-14T06:49:07;56.90;;;31.90;;
62435;SDS011;48480;50.252;18.848;2024-02-14T06:51:51;59.00;;;32.60;;
62435;SDS011;48480;50.252;18.848;2024-02-14T06:54:35;57.80;;;33.00;;
62435;SDS011;48480;50.252;18.848;2024-02-14T06:57:19;58.40;;;32.60;;
62435;SDS011;48480;50.252;18.848;2024-02-14T07:00:04;54.30;;;30.20;;
62435;SDS011;48480;50.252;18.848;2024-02-14T07:02:52;54.00;;;29.90;;
62435;SDS011;48480;50.252;18.848;2024-02-14T07:05:42;48.30;;;28.90;;
62435;SDS011;48480;50.252;18.848;2024-02-14T07:08:27;49.00;;;31.30;;
62435;SDS011;48480;50.252;18.848;2024-02-14T07:11:12;37.70;;;22.00;;
62435;SDS011;48480;50.252;18.848;2024-02-14T07:13:56;47.00;;;28.50;;
62435;SDS011;48480;50.252;18.848;2024-02-14T07:16:41;45.30;;;27.10;;
62435;SDS011;48480;50.252;18.848;2024-02-14T07:19:26;37.90;;;24.70;;
62435;SDS011;48480;50.252;18.848;2024-02-14T07:22:10;63.10;;;35.20;;
62435;SDS011;48480;50.252;18.848;2024-02-14T07:24:54;50.00;;;28.20;;
62435;SDS011;48480;50.252;18.848;2024-02-14T07:27:39;47.70;;;28.50;;
62435;SDS011;48480;50.252;18.848;2024-02-14T07:30:23;49.20;;;27.20;;
62435;SDS011;48480;50.252;18.848;2024-02-14T07:33:09;45.30;;;26.70;;
62435;SDS011;48480;50.252;18.848;2024-02-14T07:35:54;49.80;;;27.10;;
62435;SDS011;48480;50.252;18.848;2024-02-14T07:38:38;57.00;;;30.40;;
62435;SDS011;48480;50.252;18.848;2024-02-14T07:41:22;49.20;;;26.00;;
62435;SDS011;48480;50.252;18.848;2024-02-14T07:44:07;40.10;;;23.30;;
62435;SDS011;48480;50.252;18.848;2024-02-14T07:46:51;32.90;;;21.70;;
62435;SDS011;48480;50.252;18.848;2024-02-14T07:49:41;32.60;;;21.20;;
62435;SDS011;48480;50.252;18.848;2024-02-14T07:52:25;39.70;;;22.20;;
62435;SDS011;48480;50.252;18.848;2024-02-14T07:55:10;37.50;;;21.60;;
62435;SDS011;48480;50.252;18.848;2024-02-14T07:57:56;33.00;;;21.20;;
62435;SDS011;48480;50.252;18.848;2024-02-14T08:00:40;35.40;;;22.70;;
62435;SDS011;48480;50.252;18.848;2024-02-14T08:03:24;40.30;;;22.60;;
62435;SDS011;48480;50.252;18.848;2024-02-14T08:06:09;36.50;;;22.20;;
62435;SDS011;48480;50.252;18.848;2024-02-14T08:08:54;35.10;;;21.50;;
62435;SDS011;48480;50.252;18.848;2024-02-14T08:11:43;29.20;;;18.70;;
62435;SDS011;48480;50.252;18.848;2024-02-14T08:14:28;30.00;;;20.10;;
62435;SDS011;48480;50.252;18.848;2024-02-14T08:17:12;32.90;;;20.30;;
62435;SDS011;48480;50.252;18.848;2024-02-14T08:19:57;31.30;;;18.50;;
62435;SDS011;48480;50.252;18.848;2024-02-14T08:22:41;33.10;;;20.40;;
62435;SDS011;48480;50.252;18.848;2024-02-14T08:25:25;29.70;;;19.20;;
62435;SDS011;48480;50.252;18.848;2024-02-14T08:28:11;27.20;;;18.70;;
62435;SDS011;48480;50.252;18.848;2024-02-14T08:30:55;30.60;;;18.70;;
62435;SDS011;48480;50.252;18.848;2024-02-14T08:33:40;27.90;;;17.90;;
62435;SDS011;48480;50.252;18.848;2024-02-14T08:36:25;28.20;;;18.50;;
62435;SDS011;48480;50.252;18.848;2024-02-14T08:39:09;32.90;;;19.90;;
62435;SDS011;48480;50.252;18.848;2024-02-14T08:41:54;36.20;;;21.00;;
62435;SDS011;48480;50.252;18.848;2024-02-14T08:44:38;30.80;;;17.30;;
62435;SDS011;48480;50.252;18.848;2024-02-14T08:47:22;27.40;;;18.00;;
62435;SDS011;48480;50.252;18.848;2024-02-14T08:50:07;23.80;;;16.00;;
62435;SDS011;48480;50.252;18.848;2024-02-14T08:52:52;20.80;;;13.00;;
62435;SDS011;48480;50.252;18.848;2024-02-14T08:55:36;26.90;;;15.10;;
62435;SDS011;48480;50.252;18.848;2024-02-14T08:58:21;24.70;;;14.90;;
62435;SDS011;48480;50.252;18.848;2024-02-14T09:01:05;25.80;;;15.00;;
62435;SDS011;48480;50.252;18.848;2024-02-14T09:03:51;25.80;;;14.70;;
62435;SDS011;48480;50.252;18.848;2024-02-14T09:06:35;27.30;;;13.80;;
62435;SDS011;48480;50.252;18.848;2024-02-14T09:09:20;22.20;;;12.10;;
62435;SDS011;48480;50.252;18.848;2024-02-14T09:12:05;19.70;;;11.00;;
62435;SDS011;48480;50.252;18.848;2024-02-14T09:14:50;26.70;;;14.30;;
62435;SDS011;48480;50.252;18.848;2024-02-14T09:17:35;29.30;;;16.10;;
62435;SDS011;48480;50.252;18.848;2024-02-14T09:20:19;14.40;;;10.00;;
62435;SDS011;48480;50.252;18.848;2024-02-14T09:23:04;15.50;;;9.40;;
62435;SDS011;48480;50.252;18.848;2024-02-14T09:25:48;14.50;;;10.00;;
62435;SDS011;48480;50.252;18.848;2024-02-14T09:28:33;14.00;;;9.30;;
62435;SDS011;48480;50.252;18.848;2024-02-14T09:31:19;15.60;;;9.10;;
62435;SDS011;48480;50.252;18.848;2024-02-14T09:34:06;16.20;;;10.00;;
62435;SDS011;48480;50.252;18.848;2024-02-14T09:36:52;17.80;;;9.90;;
62435;SDS011;48480;50.252;18.848;2024-02-14T09:39:37;16.00;;;9.10;;
62435;SDS011;48480;50.252;18.848;2024-02-14T09:42:23;16.00;;;9.80;;
62435;SDS011;48480;50.252;18.848;2024-02-14T09:45:26;17.70;;;10.40;;
62435;SDS011;48480;50.252;18.848;2024-02-14T09:48:11;24.90;;;12.10;;
62435;SDS011;48480;50.252;18.848;2024-02-14T09:50:57;20.50;;;10.60;;
62435;SDS011;48480;50.252;18.848;2024-02-14T09:53:42;16.80;;;10.60;;
62435;SDS011;48480;50.252;18.848;2024-02-14T09:56:28;16.40;;;10.60;;
62435;SDS011;48480;50.252;18.848;2024-02-14T09:59:13;14.00;;;9.70;;
62435;SDS011;48480;50.252;18.848;2024-02-14T10:01:59;15.20;;;9.80;;
62435;SDS011;48480;50.252;18.848;2024-02-14T10:04:44;14.60;;;9.10;;
62435;SDS011;48480;50.252;18.848;2024-02-14T10:07:28;17.20;;;10.60;;
62435;SDS011;48480;50.252;18.848;2024-02-14T10:10:23;18.00;;;10.10;;
62435;SDS011;48480;50.252;18.848;2024-02-14T10:13:08;14.80;;;9.20;;
62435;SDS011;48480;50.252;18.848;2024-02-14T10:15:52;12.50;;;8.30;;
62435;SDS011;48480;50.252;18.848;2024-02-14T10:18:39;13.00;;;7.00;;
62435;SDS011;48480;50.252;18.848;2024-02-14T10:21:23;10.90;;;6.80;;
62435;SDS011;48480;50.252;18.848;2024-02-14T10:24:09;9.90;;;7.10;;
62435;SDS011;48480;50.252;18.848;2024-02-14T10:27:00;11.20;;;7.60;;
62435;SDS011;48480;50.252;18.848;2024-02-14T10:29:43;13.20;;;7.70;;
62435;SDS011;48480;50.252;18.848;2024-02-14T10:32:28;13.10;;;6.80;;
62435;SDS011;48480;50.252;18.848;2024-02-14T10:35:12;12.70;;;7.30;;
62435;SDS011;48480;50.252;18.848;2024-02-14T10:37:58;10.50;;;7.10;;
62435;SDS011;48480;50.252;18.848;2024-02-14T10:40:46;11.20;;;7.30;;
62435;SDS011;48480;50.252;18.848;2024-02-14T10:43:31;12.00;;;7.10;;
62435;SDS011;48480;50.252;18.848;2024-02-14T10:46:24;13.60;;;6.80;;
62435;SDS011;48480;50.252;18.848;2024-02-14T10:49:14;11.70;;;6.90;;
62435;SDS011;48480;50.252;18.848;2024-02-14T10:52:00;14.50;;;8.00;;
62435;SDS011;48480;50.252;18.848;2024-02-14T10:57:43;12.40;;;6.90;;
62435;SDS011;48480;50.252;18.848;2024-02-14T11:00:33;13.00;;;6.60;;
62435;SDS011;48480;50.252;18.848;2024-02-14T11:03:17;8.70;;;6.00;;
62435;SDS011;48480;50.252;18.848;2024-02-14T11:06:03;9.40;;;5.80;;
62435;SDS011;48480;50.252;18.848;2024-02-14T11:09:01;10.40;;;6.10;;
62435;SDS011;48480;50.252;18.848;2024-02-14T11:11:58;9.80;;;5.70;;
62435;SDS011;48480;50.252;18.848;2024-02-14T11:14:44;10.30;;;6.30;;
62435;SDS011;48480;50.252;18.848;2024-02-14T11:17:29;11.80;;;6.60;;
62435;SDS011;48480;50.252;18.848;2024-02-14T11:20:15;10.00;;;5.70;;
62435;SDS011;48480;50.252;18.848;2024-02-14T11:23:03;9.30;;;5.70;;
62435;SDS011;48480;50.252;18.848;2024-02-14T11:25:50;11.80;;;7.50;;
62435;SDS011;48480;50.252;18.848;2024-02-14T11:28:36;12.10;;;7.30;;
62435;SDS011;48480;50.252;18.848;2024-02-14T11:31:23;35.30;;;8.20;;
62435;SDS011;48480;50.252;18.848;2024-02-14T11:34:19;9.70;;;5.90;;
62435;SDS011;48480;50.252;18.848;2024-02-14T11:37:03;8.40;;;5.50;;
62435;SDS011;48480;50.252;18.848;2024-02-14T11:39:50;6.70;;;4.60;;
62435;SDS011;48480;50.252;18.848;2024-02-14T11:42:34;6.10;;;4.40;;
62435;SDS011;48480;50.252;18.848;2024-02-14T11:45:18;10.20;;;4.50;;
62435;SDS011;48480;50.252;18.848;2024-02-14T11:48:03;9.20;;;4.60;;
62435;SDS011;48480;50.252;18.848;2024-02-14T11:50:49;10.40;;;5.80;;
62435;SDS011;48480;50.252;18.848;2024-02-14T11:53:35;7.30;;;4.70;;
62435;SDS011;48480;50.252;18.848;2024-02-14T11:56:23;10.50;;;5.50;;
62435;SDS011;48480;50.252;18.848;2024-02-14T11:59:10;9.20;;;5.00;;
62435;SDS011;48480;50.252;18.848;2024-02-14T12:01:55;8.10;;;4.70;;
62435;SDS011;48480;50.252;18.848;2024-02-14T12:04:44;8.00;;;5.10;;
62435;SDS011;48480;50.252;18.848;2024-02-14T12:07:29;9.10;;;5.10;;
62435;SDS011;48480;50.252;18.848;2024-02-14T12:10:13;7.10;;;5.00;;
62435;SDS011;48480;50.252;18.848;2024-02-14T12:12:58;6.50;;;4.90;;
62435;SDS011;48480;50.252;18.848;2024-02-14T12:15:48;8.30;;;5.40;;
62435;SDS011;48480;50.252;18.848;2024-02-14T12:18:34;8.30;;;5.30;;
62435;SDS011;48480;50.252;18.848;2024-02-14T12:21:18;8.40;;;5.30;;
62435;SDS011;48480;50.252;18.848;2024-02-14T12:24:02;7.50;;;4.30;;
62435;SDS011;48480;50.252;18.848;2024-02-14T12:26:48;8.30;;;4.80;;
62435;SDS011;48480;50.252;18.848;2024-02-14T12:29:36;6.60;;;3.80;;
62435;SDS011;48480;50.252;18.848;2024-02-14T12:32:20;7.40;;;4.20;;
62435;SDS011;48480;50.252;18.848;2024-02-14T12:35:06;6.50;;;3.70;;
62435;SDS011;48480;50.252;18.848;2024-02-14T12:37:51;7.80;;;4.40;;
62435;SDS011;48480;50.252;18.848;2024-02-14T12:40:35;8.90;;;5.60;;
62435;SDS011;48480;50.252;18.848;2024-02-14T12:43:20;8.60;;;5.10;;
62435;SDS011;48480;50.252;18.848;2024-02-14T12:46:05;9.80;;;5.10;;
62435;SDS011;48480;50.252;18.848;2024-02-14T12:48:49;9.00;;;5.00;;
62435;SDS011;48480;50.252;18.848;2024-02-14T12:51:33;7.70;;;4.10;;
62435;SDS011;48480;50.252;18.848;2024-02-14T12:54:20;7.20;;;4.40;;
62435;SDS011;48480;50.252;18.848;2024-02-14T12:57:04;6.70;;;4.20;;
62435;SDS011;48480;50.252;18.848;2024-02-14T12:59:48;5.70;;;4.30;;
62435;SDS011;48480;50.252;18.848;2024-02-14T13:02:32;8.90;;;5.10;;
62435;SDS011;48480;50.252;18.848;2024-02-14T13:05:16;8.10;;;4.60;;
62435;SDS011;48480;50.252;18.848;2024-02-14T13:08:00;9.60;;;5.30;;
62435;SDS011;48480;50.252;18.848;2024-02-14T13:10:44;6.60;;;4.10;;
62435;SDS011;48480;50.252;18.848;2024-02-14T13:13:29;7.20;;;4.30;;
62435;SDS011;48480;50.252;18.848;2024-02-14T13:16:13;7.30;;;4.30;;
62435;SDS011;48480;50.252;18.848;2024-02-14T13:18:57;8.70;;;5.20;;
62435;SDS011;48480;50.252;18.848;2024-02-14T13:21:41;8.40;;;5.00;;
62435;SDS011;48480;50.252;18.848;2024-02-14T13:24:29;9.10;;;5.90;;
62435;SDS011;48480;50.252;18.848;2024-02-14T13:27:13;7.20;;;4.40;;
62435;SDS011;48480;50.252;18.848;2024-02-14T13:29:58;7.50;;;4.30;;
62435;SDS011;48480;50.252;18.848;2024-02-14T13:32:42;8.30;;;4.90;;
62435;SDS011;48480;50.252;18.848;2024-02-14T13:35:26;7.00;;;5.10;;
62435;SDS011;48480;50.252;18.848;2024-02-14T13:38:11;8.40;;;4.70;;
62435;SDS011;48480;50.252;18.848;2024-02-14T13:40:56;8.40;;;4.60;;
62435;SDS011;48480;50.252;18.848;2024-02-14T13:43:40;8.60;;;5.70;;
62435;SDS011;48480;50.252;18.848;2024-02-14T13:46:25;10.50;;;5.70;;
62435;SDS011;48480;50.252;18.848;2024-02-14T13:49:10;7.80;;;5.50;;
62435;SDS011;48480;50.252;18.848;2024-02-14T13:51:57;9.00;;;5.60;;
62435;SDS011;48480;50.252;18.848;2024-02-14T13:54:42;10.00;;;4.50;;
62435;SDS011;48480;50.252;18.848;2024-02-14T13:57:26;10.60;;;4.80;;
62435;SDS011;48480;50.252;18.848;2024-02-14T14:00:11;6.70;;;4.50;;
62435;SDS011;48480;50.252;18.848;2024-02-14T14:02:58;9.00;;;4.50;;
62435;SDS011;48480;50.252;18.848;2024-02-14T14:05:42;8.70;;;4.70;;
62435;SDS011;48480;50.252;18.848;2024-02-14T14:08:29;7.00;;;4.40;;
62435;SDS011;48480;50.252;18.848;2024-02-14T14:11:24;12.00;;;5.70;;
62435;SDS011;48480;50.252;18.848;2024-02-14T14:14:16;7.80;;;5.20;;
62435;SDS011;48480;50.252;18.848;2024-02-14T14:17:15;11.50;;;4.80;;
62435;SDS011;48480;50.252;18.848;2024-02-14T14:20:01;7.50;;;4.70;;
62435;SDS011;48480;50.252;18.848;2024-02-14T14:22:52;7.30;;;4.60;;
62435;SDS011;48480;50.252;18.848;2024-02-14T14:25:40;6.30;;;4.30;;
62435;SDS011;48480;50.252;18.848;2024-02-14T14:28:35;12.00;;;6.40;;
62435;SDS011;48480;50.252;18.848;2024-02-14T14:31:20;8.90;;;5.10;;
62435;SDS011;48480;50.252;18.848;2024-02-14T14:34:06;9.90;;;5.60;;
62435;SDS011;48480;50.252;18.848;2024-02-14T14:36:55;8.90;;;4.90;;
62435;SDS011;48480;50.252;18.848;2024-02-14T14:39:40;7.50;;;4.60;;
62435;SDS011;48480;50.252;18.848;2024-02-14T14:42:25;8.30;;;5.60;;
62435;SDS011;48480;50.252;18.848;2024-02-14T14:45:09;10.20;;;5.80;;
62435;SDS011;48480;50.252;18.848;2024-02-14T14:47:54;8.50;;;5.60;;
62435;SDS011;48480;50.252;18.848;2024-02-14T14:50:40;12.80;;;7.90;;
62435;SDS011;48480;50.252;18.848;2024-02-14T14:53:34;10.70;;;6.10;;
62435;SDS011;48480;50.252;18.848;2024-02-14T14:59:17;12.40;;;7.20;;
62435;SDS011;48480;50.252;18.848;2024-02-14T15:02:07;12.30;;;7.20;;
62435;SDS011;48480;50.252;18.848;2024-02-14T15:04:51;20.10;;;9.10;;
62435;SDS011;48480;50.252;18.848;2024-02-14T15:07:38;17.40;;;9.70;;
62435;SDS011;48480;50.252;18.848;2024-02-14T15:10:32;16.70;;;8.70;;
62435;SDS011;48480;50.252;18.848;2024-02-14T15:13:16;15.90;;;8.20;;
62435;SDS011;48480;50.252;18.848;2024-02-14T15:16:00;13.60;;;7.70;;
62435;SDS011;48480;50.252;18.848;2024-02-14T15:18:47;16.20;;;9.00;;
62435;SDS011;48480;50.252;18.848;2024-02-14T15:21:31;15.00;;;8.30;;
62435;SDS011;48480;50.252;18.848;2024-02-14T15:24:16;12.50;;;7.50;;
62435;SDS011;48480;50.252;18.848;2024-02-14T15:27:00;13.60;;;7.10;;
62435;SDS011;48480;50.252;18.848;2024-02-14T15:29:45;12.90;;;7.30;;
62435;SDS011;48480;50.252;18.848;2024-02-14T15:32:48;14.50;;;7.90;;
62435;SDS011;48480;50.252;18.848;2024-02-14T15:35:54;15.60;;;9.30;;
62435;SDS011;48480;50.252;18.848;2024-02-14T15:38:42;17.10;;;9.50;;
62435;SDS011;48480;50.252;18.848;2024-02-14T15:41:27;16.00;;;9.40;;
62435;SDS011;48480;50.252;18.848;2024-02-14T15:44:11;20.80;;;11.80;;
62435;SDS011;48480;50.252;18.848;2024-02-14T15:46:55;17.60;;;10.70;;
62435;SDS011;48480;50.252;18.848;2024-02-14T15:49:40;12.80;;;9.50;;
62435;SDS011;48480;50.252;18.848;2024-02-14T15:52:25;15.50;;;9.70;;
62435;SDS011;48480;50.252;18.848;2024-02-14T15:55:09;17.70;;;11.60;;
62435;SDS011;48480;50.252;18.848;2024-02-14T15:57:54;13.50;;;9.40;;
62435;SDS011;48480;50.252;18.848;2024-02-14T16:00:38;21.40;;;11.10;;
62435;SDS011;48480;50.252;18.848;2024-02-14T16:03:22;16.60;;;10.30;;
62435;SDS011;48480;50.252;18.848;2024-02-14T16:06:06;22.10;;;11.30;;
62435;SDS011;48480;50.252;18.848;2024-02-14T16:08:50;24.90;;;12.30;;